Time;durP1;ratioP1;P1;durP2;ratioP2;P2;SDS_P1;SDS_P2;PMS_P1;PMS_P2;Temp;Humidity;BMP_temperature;BMP_pressure;BME280_temperature;BME280_humidity;BME280_pressure;Samples;Min_cycle;Max_cycle;Signal;HPM_P1;HPM_P2
2021/01/31 00:00:47;;;;;;;2.80;2.00;;;19.90;36.60;;;;;;8419258;28;20403;-57
2021/01/31 00:04:48;;;;;;;2.05;1.77;;;19.80;36.50;;;;;;8422958;28;20389;-53
2021/01/31 00:08:48;;;;;;;2.10;1.67;;;19.80;36.60;;;;;;8405414;28;20044;-55
2021/01/31 00:12:49;;;;;;;3.37;2.00;;;19.80;37.10;;;;;;8401113;28;20056;-55
2021/01/31 00:16:50;;;;;;;2.63;1.77;;;19.80;36.60;;;;;;8399128;28;20057;-55
2021/01/31 00:20:52;;;;;;;2.70;1.53;;;19.80;36.60;;;;;;8400327;28;20058;-55
2021/01/31 00:24:55;;;;;;;2.03;1.83;;;19.70;36.50;;;;;;8400746;28;20058;-55
2021/01/31 00:28:56;;;;;;;2.03;1.40;;;19.70;36.50;;;;;;8403298;28;20442;-55
2021/01/31 00:32:57;;;;;;;3.13;1.70;;;19.70;36.50;;;;;;8398103;27;20032;-56
2021/01/31 00:36:57;;;;;;;1.77;1.50;;;19.70;36.50;;;;;;8395484;28;20075;-56
2021/01/31 00:40:58;;;;;;;3.07;1.93;;;19.60;36.50;;;;;;8393114;28;20032;-56
2021/01/31 00:44:58;;;;;;;1.60;1.50;;;19.60;36.60;;;;;;8399491;28;20051;-56
2021/01/31 00:48:59;;;;;;;3.33;1.57;;;19.60;36.60;;;;;;8394681;28;20067;-56
2021/01/31 00:52:59;;;;;;;2.10;1.50;;;19.60;36.50;;;;;;8393782;28;20029;-56
2021/01/31 00:57:00;;;;;;;2.03;1.30;;;19.60;36.50;;;;;;8394677;28;20052;-56
2021/01/31 01:01:00;;;;;;;3.47;1.60;;;19.60;36.50;;;;;;8392906;27;20119;-50
2021/01/31 01:05:01;;;;;;;2.83;1.67;;;19.60;36.50;;;;;;8399142;28;20044;-56
2021/01/31 01:09:01;;;;;;;1.60;1.40;;;19.60;36.60;;;;;;8394733;28;20035;-56
2021/01/31 01:13:04;;;;;;;2.70;1.53;;;19.50;36.50;;;;;;8392499;27;20553;-55
2021/01/31 01:17:06;;;;;;;2.47;1.40;;;19.50;36.50;;;;;;8393703;28;20050;-56
2021/01/31 01:21:06;;;;;;;;;;;19.50;36.50;;;;;;8398664;27;20029;-56
2021/01/31 01:25:09;;;;;;;2.03;1.67;;;19.50;37.00;;;;;;8392269;27;20011;-56
2021/01/31 01:29:10;;;;;;;2.40;1.67;;;19.50;36.50;;;;;;8393534;28;20102;-56
2021/01/31 01:33:11;;;;;;;2.33;1.53;;;19.50;36.50;;;;;;8393404;28;20032;-56
2021/01/31 01:37:13;;;;;;;1.47;1.30;;;19.50;36.50;;;;;;8396151;27;20048;-56
2021/01/31 01:41:13;;;;;;;1.40;1.30;;;19.50;36.50;;;;;;8393493;28;20504;-55
2021/01/31 01:45:14;;;;;;;2.83;1.50;;;19.40;36.40;;;;;;8392730;28;20040;-56
2021/01/31 01:49:22;;;;;;;2.67;1.20;;;19.40;36.50;;;;;;8391369;27;20041;-56
2021/01/31 01:53:25;;;;;;;2.05;1.60;;;19.40;36.50;;;;;;8392718;28;20123;-56
2021/01/31 01:57:29;;;;;;;1.83;1.40;;;19.40;36.50;;;;;;8396895;28;20055;-56
2021/01/31 02:01:32;;;;;;;2.20;1.40;;;19.40;36.50;;;;;;8390849;28;20366;-56
2021/01/31 02:05:33;;;;;;;2.25;1.50;;;19.30;36.50;;;;;;8392716;28;20494;-56
2021/01/31 02:09:34;;;;;;;2.20;1.60;;;19.30;36.50;;;;;;8392204;28;20043;-56
2021/01/31 02:13:36;;;;;;;;;;;19.30;36.50;;;;;;8395242;27;20037;-56
2021/01/31 02:18:06;;;;;;;2.97;1.25;;;19.30;36.50;;;;;;8392438;28;19920;-56
2021/01/31 02:22:35;;;;;;;1.98;1.40;;;19.30;36.50;;;;;;8390524;27;20067;-56
2021/01/31 02:27:08;;;;;;;1.77;1.20;;;19.30;36.50;;;;;;8391562;28;20393;-56
2021/01/31 02:31:40;;;;;;;1.95;1.65;;;19.30;36.50;;;;;;8390065;28;20481;-56
2021/01/31 02:35:44;;;;;;;1.88;1.25;;;19.20;36.50;;;;;;8391522;28;20153;-56
2021/01/31 02:39:56;;;;;;;1.98;1.38;;;19.20;36.50;;;;;;8392223;28;20102;-56
2021/01/31 02:43:58;;;;;;;1.95;1.45;;;19.20;36.50;;;;;;8393950;28;20024;-56
2021/01/31 02:48:16;;;;;;;1.98;1.10;;;19.20;36.50;;;;;;8391406;28;20037;-56
2021/01/31 02:52:24;;;;;;;2.78;1.17;;;19.20;36.40;;;;;;8389117;28;20039;-56
2021/01/31 02:56:33;;;;;;;2.20;1.50;;;19.20;36.50;;;;;;8390079;27;20121;-56
2021/01/31 03:00:58;;;;;;;2.40;1.50;;;19.20;36.50;;;;;;8391851;28;20115;-56
2021/01/31 03:05:07;;;;;;;2.50;1.42;;;19.10;36.40;;;;;;8360263;28;20143;-56
2021/01/31 03:09:13;;;;;;;1.73;1.30;;;19.10;36.40;;;;;;8385696;28;20064;-56
2021/01/31 03:13:27;;;;;;;1.88;1.50;;;19.10;36.50;;;;;;8389361;28;20542;-56
2021/01/31 03:17:33;;;;;;;2.15;1.15;;;19.10;36.50;;;;;;8390320;28;20135;-56
2021/01/31 03:21:37;;;;;;;1.92;1.30;;;19.10;36.40;;;;;;8390973;28;20039;-56
2021/01/31 03:25:47;;;;;;;1.92;1.30;;;19.10;36.40;;;;;;8393439;28;20028;-56
2021/01/31 03:29:48;;;;;;;1.50;1.25;;;19.10;36.40;;;;;;8390421;28;20036;-56
2021/01/31 03:33:54;;;;;;;1.77;1.30;;;19.10;36.40;;;;;;8390206;28;20493;-56
2021/01/31 03:38:27;;;;;;;2.00;1.27;;;19.10;36.40;;;;;;8388459;28;20131;-56
2021/01/31 03:42:28;;;;;;;1.75;1.20;;;19.10;36.40;;;;;;8389967;28;20041;-56
2021/01/31 03:46:37;;;;;;;2.00;1.20;;;19.10;36.40;;;;;;8393083;28;20032;-56
2021/01/31 03:50:38;;;;;;;3.50;1.30;;;19.00;36.40;;;;;;8389960;28;20037;-56
2021/01/31 03:54:38;;;;;;;2.33;1.30;;;19.10;36.40;;;;;;8407446;28;20036;-56
2021/01/31 03:58:43;;;;;;;2.00;1.20;;;19.00;36.40;;;;;;8420560;28;20043;-56
2021/01/31 04:02:54;;;;;;;1.77;1.25;;;19.00;36.40;;;;;;8427888;28;20025;-56
2021/01/31 04:06:58;;;;;;;1.80;1.30;;;19.00;36.40;;;;;;8406395;28;20112;-56
2021/01/31 04:10:59;;;;;;;1.40;1.20;;;19.00;36.40;;;;;;8393206;28;20370;-56
2021/01/31 04:15:18;;;;;;;2.47;1.40;;;19.00;36.60;;;;;;8395784;28;20036;-56
2021/01/31 04:19:20;;;;;;;1.85;1.30;;;19.00;36.70;;;;;;8393993;28;22991;-56
2021/01/31 04:23:21;;;;;;;1.77;1.30;;;19.00;36.80;;;;;;8399873;27;20039;-55
2021/01/31 04:27:21;;;;;;;1.57;1.07;;;19.00;36.80;;;;;;8395883;28;20040;-56
2021/01/31 04:31:22;;;;;;;1.67;1.10;;;19.10;36.80;;;;;;8393752;28;20087;-56
2021/01/31 04:35:22;;;;;;;2.70;1.30;;;19.10;36.70;;;;;;8396231;28;20538;-56
2021/01/31 04:39:24;;;;;;;2.83;1.33;;;19.10;36.60;;;;;;8396025;28;20040;-56
2021/01/31 04:43:24;;;;;;;1.42;1.00;;;19.20;36.60;;;;;;8396876;28;20488;-56
2021/01/31 04:47:30;;;;;;;1.70;1.00;;;19.20;36.60;;;;;;8418423;27;20030;-56
2021/01/31 04:51:38;;;;;;;1.20;1.10;;;19.30;36.70;;;;;;8413341;28;20516;-55
2021/01/31 04:56:02;;;;;;;3.00;1.30;;;19.30;36.40;;;;;;8392958;28;20064;-58
2021/01/31 05:00:06;;;;;;;2.03;1.23;;;19.40;36.50;;;;;;8399033;27;20040;-56
2021/01/31 05:04:11;;;;;;;2.13;1.10;;;19.40;36.40;;;;;;8392773;28;20401;-56
2021/01/31 05:08:22;;;;;;;2.95;1.10;;;19.40;36.40;;;;;;8394837;28;20040;-56
2021/01/31 05:12:37;;;;;;;1.30;1.20;;;19.40;36.30;;;;;;8394113;28;20048;-56
2021/01/31 05:16:37;;;;;;;1.27;1.05;;;19.40;36.40;;;;;;8392434;27;20486;-56
2021/01/31 05:20:38;;;;;;;1.43;1.13;;;19.50;36.40;;;;;;8397883;28;20027;-56
2021/01/31 05:24:39;;;;;;;2.23;0.93;;;19.50;36.40;;;;;;8393973;28;20044;-56
2021/01/31 05:28:43;;;;;;;2.25;1.63;;;19.50;36.30;;;;;;8412137;28;20262;-55
2021/01/31 05:33:16;;;;;;;1.42;1.15;;;19.60;36.40;;;;;;8415032;28;20036;-56
2021/01/31 05:37:24;;;;;;;3.00;1.10;;;19.60;36.40;;;;;;8391661;27;20554;-58
2021/01/31 05:41:38;;;;;;;1.70;1.00;;;19.60;36.30;;;;;;8397833;28;20170;-56
2021/01/31 05:45:41;;;;;;;1.17;0.80;;;19.60;36.30;;;;;;8393201;28;20393;-56
2021/01/31 05:49:47;;;;;;;1.70;1.00;;;19.70;36.40;;;;;;8391372;28;20052;-56
2021/01/31 05:53:47;;;;;;;2.28;1.13;;;19.70;36.30;;;;;;8392809;28;20098;-56
2021/01/31 05:57:48;;;;;;;1.07;0.97;;;19.70;36.30;;;;;;8392633;28;20040;-57
2021/01/31 06:02:00;;;;;;;1.60;1.10;;;19.70;36.40;;;;;;8395437;28;20123;-56
2021/01/31 06:06:19;;;;;;;2.03;1.08;;;19.80;36.40;;;;;;8421393;28;20115;-56
2021/01/31 06:10:20;;;;;;;2.15;1.20;;;19.80;36.50;;;;;;8423085;28;20079;-56
2021/01/31 06:14:31;;;;;;;1.20;1.10;;;19.80;36.60;;;;;;8413521;28;20044;-55
2021/01/31 06:19:13;;;;;;;1.40;0.95;;;19.80;36.40;;;;;;8392247;27;20037;-58
2021/01/31 06:23:20;;;;;;;1.85;1.30;;;19.80;36.60;;;;;;8346097;28;20552;-56
2021/01/31 06:27:32;;;;;;;1.70;1.08;;;19.80;36.50;;;;;;8393074;28;20371;-56
2021/01/31 06:31:50;;;;;;;3.67;1.38;;;19.90;36.50;;;;;;8414245;27;20067;-56
2021/01/31 06:36:06;;;;;;;1.95;1.13;;;19.90;36.60;;;;;;8407628;28;20043;-56
2021/01/31 06:40:18;;;;;;;1.63;1.13;;;19.90;36.60;;;;;;8389931;27;20044;-56
2021/01/31 06:44:40;;;;;;;1.65;1.10;;;19.90;36.50;;;;;;8391455;28;20025;-58
2021/01/31 06:49:05;;;;;;;1.83;1.33;;;19.90;36.60;;;;;;8395845;28;20048;-56
2021/01/31 06:53:21;;;;;;;2.42;1.65;;;19.90;36.50;;;;;;8389768;28;20028;-57
2021/01/31 06:57:41;;;;;;;1.27;1.08;;;19.90;36.50;;;;;;8413581;28;20497;-57
2021/01/31 07:02:33;;;;;;;1.30;1.20;;;20.00;36.60;;;;;;8406255;28;20037;-57
2021/01/31 07:07:07;;;;;;;2.53;1.48;;;19.90;36.60;;;;;;8389716;28;20076;-57
2021/01/31 07:11:37;;;;;;;2.75;1.40;;;20.00;36.50;;;;;;8389054;28;20481;-57
2021/01/31 07:16:07;;;;;;;1.50;1.10;;;20.00;36.60;;;;;;8390611;28;20028;-57
2021/01/31 07:20:39;;;;;;;3.00;1.20;;;20.00;36.60;;;;;;8393406;28;20054;-57
2021/01/31 07:25:02;;;;;;;3.60;1.40;;;20.00;36.60;;;;;;8393205;28;20037;-57
2021/01/31 07:29:10;;;;;;;2.55;1.27;;;20.00;36.60;;;;;;8388889;28;20040;-59
2021/01/31 07:33:40;;;;;;;2.10;1.10;;;20.00;36.70;;;;;;8390479;28;20103;-56
2021/01/31 07:37:45;;;;;;;1.27;1.10;;;20.00;36.60;;;;;;8388626;28;20527;-56
2021/01/31 07:41:54;;;;;;;3.15;1.10;;;20.00;36.70;;;;;;8390436;28;20025;-56
2021/01/31 07:46:01;;;;;;;2.90;1.00;;;20.10;36.70;;;;;;8401618;28;20033;-56
2021/01/31 07:50:01;;;;;;;1.48;1.00;;;20.10;36.60;;;;;;8395476;27;20135;-56
2021/01/31 07:54:17;;;;;;;1.90;1.47;;;20.10;36.50;;;;;;8414491;28;20036;-57
2021/01/31 07:58:20;;;;;;;1.50;1.08;;;20.10;36.70;;;;;;8417039;28;20051;-56
2021/01/31 08:02:54;;;;;;;2.33;1.33;;;20.10;36.60;;;;;;8396091;28;20041;-57
2021/01/31 08:06:58;;;;;;;1.90;1.48;;;20.10;36.60;;;;;;8400860;28;20094;-57
2021/01/31 08:10:58;;;;;;;1.38;1.15;;;20.10;36.60;;;;;;8395057;28;20036;-57
2021/01/31 08:15:32;;;;;;;1.50;1.10;;;20.10;36.60;;;;;;8395805;28;20408;-57
2021/01/31 08:19:33;;;;;;;1.98;1.40;;;20.20;36.60;;;;;;8394086;27;20381;-57
2021/01/31 08:23:46;;;;;;;2.63;1.23;;;20.10;37.20;;;;;;8395953;28;20436;-57
2021/01/31 08:27:54;;;;;;;1.92;0.90;;;20.20;36.60;;;;;;8400087;28;20355;-57
2021/01/31 08:32:11;;;;;;;2.30;1.50;;;20.20;36.70;;;;;;8393581;27;20027;-57
2021/01/31 08:36:20;;;;;;;2.58;1.50;;;20.20;36.60;;;;;;8395513;28;20064;-57
2021/01/31 08:40:24;;;;;;;2.65;1.60;;;20.20;36.70;;;;;;8393415;28;20037;-57
2021/01/31 08:44:25;;;;;;;1.83;1.30;;;20.20;36.50;;;;;;8395699;28;20115;-57
2021/01/31 08:48:26;;;;;;;1.67;1.57;;;20.20;36.60;;;;;;8399591;28;20032;-58
2021/01/31 08:52:27;;;;;;;2.00;1.35;;;20.30;36.60;;;;;;8393078;28;20032;-57
2021/01/31 08:56:51;;;;;;;2.50;1.55;;;20.30;36.70;;;;;;8393663;28;20396;-57
2021/01/31 09:00:56;;;;;;;2.50;1.40;;;20.30;36.60;;;;;;8394493;28;20040;-57
2021/01/31 09:05:10;;;;;;;1.50;1.40;;;20.30;36.60;;;;;;8392629;28;20037;-57
2021/01/31 09:09:26;;;;;;;1.95;1.45;;;20.30;36.60;;;;;;8398851;27;20071;-57
2021/01/31 09:13:32;;;;;;;1.52;1.33;;;20.30;36.50;;;;;;8392484;27;20031;-57
2021/01/31 09:17:33;;;;;;;2.28;1.63;;;20.30;36.50;;;;;;8394324;28;20114;-57
2021/01/31 09:21:35;;;;;;;3.27;1.40;;;20.30;36.50;;;;;;8394276;28;20073;-57
2021/01/31 09:25:38;;;;;;;2.47;1.73;;;20.30;36.50;;;;;;8392586;28;20493;-57
2021/01/31 09:29:39;;;;;;;1.67;1.25;;;20.40;36.50;;;;;;8398415;28;20044;-57
2021/01/31 09:33:42;;;;;;;1.83;1.50;;;20.40;36.50;;;;;;8394181;27;20075;-58
2021/01/31 09:37:42;;;;;;;1.42;1.33;;;20.40;36.50;;;;;;8391482;28;20554;-57
2021/01/31 09:41:44;;;;;;;1.67;1.43;;;20.40;36.50;;;;;;8393306;28;20025;-57
2021/01/31 09:45:48;;;;;;;2.78;1.58;;;20.40;36.50;;;;;;8397943;28;20037;-57
2021/01/31 09:49:55;;;;;;;1.40;1.13;;;20.40;36.60;;;;;;8391141;27;20052;-57
2021/01/31 09:54:15;;;;;;;1.77;1.40;;;20.40;36.60;;;;;;8392913;28;20436;-57
2021/01/31 09:58:32;;;;;;;2.45;1.63;;;20.50;36.60;;;;;;8391126;28;20045;-57
2021/01/31 10:02:34;;;;;;;2.05;1.42;;;20.40;36.50;;;;;;8392515;28;20386;-57
2021/01/31 10:06:46;;;;;;;;;;;20.50;36.60;;;;;;8397186;28;20040;-57
2021/01/31 10:10:46;;;;;;;1.83;1.48;;;20.40;36.60;;;;;;8390568;28;20429;-57
2021/01/31 10:14:52;;;;;;;1.87;1.40;;;20.50;36.60;;;;;;8392024;28;20033;-57
2021/01/31 10:18:53;;;;;;;1.58;1.17;;;20.40;36.60;;;;;;8392167;28;20450;-57
2021/01/31 10:23:06;;;;;;;1.50;1.40;;;20.50;36.60;;;;;;8390544;28;20366;-57
2021/01/31 10:27:20;;;;;;;2.35;1.17;;;20.50;36.70;;;;;;8396340;28;20500;-57
2021/01/31 10:31:27;;;;;;;1.85;1.30;;;20.50;36.60;;;;;;8390591;28;20041;-57
2021/01/31 10:35:34;;;;;;;1.45;1.20;;;20.50;36.60;;;;;;8391825;28;20396;-57
2021/01/31 10:39:34;;;;;;;1.55;1.35;;;20.50;36.60;;;;;;8391052;28;20068;-57
2021/01/31 10:43:35;;;;;;;1.43;1.13;;;20.50;36.70;;;;;;8389759;28;20033;-58
2021/01/31 10:47:35;;;;;;;2.03;1.10;;;20.60;36.60;;;;;;8395743;27;20040;-56
2021/01/31 10:51:37;;;;;;;1.20;1.07;;;20.50;36.60;;;;;;8391658;28;20040;-57
2021/01/31 10:55:37;;;;;;;1.75;1.30;;;20.50;36.70;;;;;;8389489;28;20055;-57
2021/01/31 10:59:37;;;;;;;2.13;1.30;;;20.50;36.60;;;;;;8390877;28;20127;-57
2021/01/31 11:03:38;;;;;;;1.30;1.20;;;20.50;36.60;;;;;;8395804;28;20028;-57
2021/01/31 11:07:38;;;;;;;1.33;1.23;;;20.60;36.60;;;;;;8390031;27;20040;-57
2021/01/31 11:11:39;;;;;;;1.83;1.23;;;20.60;36.60;;;;;;8390892;28;20106;-57
2021/01/31 11:15:39;;;;;;;2.47;1.63;;;20.60;36.60;;;;;;8399632;28;20082;-57
2021/01/31 11:19:40;;;;;;;1.30;1.20;;;20.60;36.60;;;;;;8426326;28;20044;-56
2021/01/31 11:23:40;;;;;;;1.70;1.17;;;20.60;36.50;;;;;;8391971;28;20033;-57
2021/01/31 11:27:41;;;;;;;1.23;1.10;;;20.60;36.60;;;;;;8390377;28;20420;-57
2021/01/31 11:31:41;;;;;;;1.23;1.10;;;20.60;36.60;;;;;;8389894;27;20052;-56
2021/01/31 11:35:42;;;;;;;1.70;1.37;;;20.60;36.50;;;;;;8390281;28;20035;-57
2021/01/31 11:39:43;;;;;;;1.10;1.00;;;20.60;36.50;;;;;;8394349;28;20452;-52
2021/01/31 11:43:43;;;;;;;1.70;1.30;;;20.60;35.60;;;;;;8387559;28;20683;-57
2021/01/31 11:47:44;;;;;;;0.90;0.90;;;20.20;36.40;;;;;;8390213;28;20037;-57
2021/01/31 11:51:45;;;;;;;1.37;0.70;;;20.20;36.80;;;;;;8390220;28;20126;-58
2021/01/31 11:55:46;;;;;;;0.80;0.80;;;20.30;36.60;;;;;;8392879;28;20347;-57
2021/01/31 11:59:46;;;;;;;1.60;1.00;;;20.40;36.60;;;;;;8390097;28;20106;-57
2021/01/31 12:03:47;;;;;;;0.80;0.80;;;20.50;36.50;;;;;;8390642;27;20037;-57
2021/01/31 12:07:48;;;;;;;1.00;0.90;;;20.50;36.40;;;;;;8388434;28;20044;-57
2021/01/31 12:11:48;;;;;;;0.83;0.83;;;20.60;36.40;;;;;;8393011;28;20272;-57
2021/01/31 12:15:49;;;;;;;0.93;0.80;;;20.60;36.40;;;;;;8391042;28;20370;-56
2021/01/31 12:19:50;;;;;;;0.80;0.70;;;20.60;36.40;;;;;;8388230;28;20075;-57
2021/01/31 12:23:50;;;;;;;0.90;0.90;;;20.60;36.90;;;;;;8389947;28;20041;-57
2021/01/31 12:27:52;;;;;;;0.40;0.40;;;20.60;36.30;;;;;;8389567;28;20124;-57
2021/01/31 12:31:53;;;;;;;0.70;0.70;;;20.60;36.30;;;;;;8397280;28;20044;-57
2021/01/31 12:35:54;;;;;;;1.23;1.00;;;20.70;36.30;;;;;;8395645;28;20126;-57
2021/01/31 12:39:56;;;;;;;1.17;1.07;;;20.70;36.40;;;;;;8395237;28;20071;-57
2021/01/31 12:43:57;;;;;;;0.70;0.70;;;20.70;36.30;;;;;;8393199;27;20028;-57
2021/01/31 12:47:58;;;;;;;1.88;1.10;;;20.70;36.30;;;;;;8399730;28;20024;-58
2021/01/31 12:51:59;;;;;;;2.28;0.90;;;20.70;36.20;;;;;;8394893;27;20079;-58
2021/01/31 12:55:59;;;;;;;1.23;1.07;;;20.70;36.20;;;;;;8393796;28;20037;-57
2021/01/31 13:00:00;;;;;;;1.17;0.80;;;20.70;36.20;;;;;;8394420;28;20095;-58
2021/01/31 13:04:00;;;;;;;1.57;1.10;;;20.70;36.20;;;;;;8393513;28;20078;-53
2021/01/31 13:08:03;;;;;;;1.80;1.03;;;20.70;36.20;;;;;;8432390;28;20032;-56
2021/01/31 13:12:04;;;;;;;1.20;0.70;;;20.80;36.30;;;;;;8402531;28;20062;-57
2021/01/31 13:16:04;;;;;;;0.90;0.77;;;20.80;36.30;;;;;;8392786;27;20021;-57
2021/01/31 13:20:06;;;;;;;1.27;1.00;;;20.70;36.30;;;;;;8394457;27;20058;-57
2021/01/31 13:24:07;;;;;;;1.45;1.10;;;20.80;36.30;;;;;;8398114;28;20044;-57
2021/01/31 13:28:07;;;;;;;1.17;1.07;;;20.80;36.30;;;;;;8391553;28;20127;-57
2021/01/31 13:32:08;;;;;;;1.47;1.03;;;20.80;36.30;;;;;;8392250;28;20102;-58
2021/01/31 13:36:09;;;;;;;1.37;0.93;;;20.80;36.30;;;;;;8393578;28;20060;-58
2021/01/31 13:40:11;;;;;;;2.55;0.75;;;20.80;36.30;;;;;;8395751;28;20305;-56
2021/01/31 13:44:11;;;;;;;;;;;20.80;36.20;;;;;;8393203;28;20040;-57
2021/01/31 13:48:12;;;;;;;1.33;1.03;;;20.80;36.20;;;;;;8392973;28;19912;-56
2021/01/31 13:52:12;;;;;;;1.33;0.80;;;20.80;36.20;;;;;;8391295;28;20033;-57
2021/01/31 13:56:13;;;;;;;1.20;0.90;;;20.80;36.20;;;;;;8392341;28;20024;-57
2021/01/31 14:00:16;;;;;;;1.35;1.13;;;20.90;36.20;;;;;;8397013;28;20080;-57
2021/01/31 14:04:20;;;;;;;1.23;1.08;;;20.90;36.20;;;;;;8390342;28;20040;-57
2021/01/31 14:08:20;;;;;;;1.13;0.85;;;20.90;36.20;;;;;;8392851;28;20036;-57
2021/01/31 14:12:21;;;;;;;1.10;1.00;;;20.90;36.20;;;;;;8399102;28;20037;-57
2021/01/31 14:16:23;;;;;;;1.00;0.90;;;20.90;36.20;;;;;;8428518;28;20039;-58
2021/01/31 14:20:23;;;;;;;1.15;0.95;;;20.90;36.20;;;;;;8394500;27;20045;-57
2021/01/31 14:24:24;;;;;;;0.80;0.80;;;20.90;36.20;;;;;;8391709;28;20040;-57
2021/01/31 14:28:24;;;;;;;1.13;1.00;;;20.90;36.20;;;;;;8389783;28;20035;-57
2021/01/31 14:32:25;;;;;;;1.07;0.73;;;20.90;36.20;;;;;;8391322;28;20131;-57
2021/01/31 14:36:26;;;;;;;1.30;1.03;;;20.90;36.20;;;;;;8395993;28;20040;-57
2021/01/31 14:40:28;;;;;;;1.50;1.00;;;20.90;36.20;;;;;;8388377;27;20044;-57
2021/01/31 14:44:30;;;;;;;1.50;1.20;;;20.90;36.20;;;;;;8391232;28;20037;-57
2021/01/31 14:48:30;;;;;;;1.27;1.17;;;20.90;36.20;;;;;;8389448;28;20060;-57
2021/01/31 14:52:31;;;;;;;1.65;1.13;;;20.90;36.20;;;;;;8393131;28;20090;-57
2021/01/31 14:56:31;;;;;;;1.00;0.90;;;20.90;36.20;;;;;;8390154;28;20031;-50
2021/01/31 15:00:36;;;;;;;7.03;1.40;;;20.90;35.80;;;;;;8390962;28;20512;-49
2021/01/31 15:04:37;;;;;;;5.30;1.25;;;20.60;35.20;;;;;;8384884;28;20110;-58
2021/01/31 15:08:38;;;;;;;3.63;1.10;;;20.00;37.30;;;;;;8388060;27;20037;-57
2021/01/31 15:12:38;;;;;;;4.33;1.63;;;20.00;37.90;;;;;;8382814;27;20035;-57
2021/01/31 15:16:39;;;;;;;4.93;1.13;;;20.10;37.70;;;;;;8379350;28;20544;-55
2021/01/31 15:20:39;;;;;;;6.17;1.43;;;20.30;37.70;;;;;;8372042;28;20055;-57
2021/01/31 15:24:40;;;;;;;6.43;1.07;;;20.50;37.60;;;;;;8392073;28;20102;-58
2021/01/31 15:28:41;;;;;;;3.50;1.63;;;20.60;37.50;;;;;;8394704;28;20038;-56
2021/01/31 15:32:42;;;;;;;10.60;2.10;;;20.80;37.70;;;;;;8386048;28;20075;-54
2021/01/31 15:36:42;;;;;;;3.33;1.40;;;20.90;38.00;;;;;;8386459;28;20033;-58
2021/01/31 15:40:43;;;;;;;13.27;1.43;;;20.90;38.50;;;;;;8381978;27;20060;-57
2021/01/31 15:44:43;;;;;;;6.30;1.30;;;21.10;38.50;;;;;;8385295;27;20028;-57
2021/01/31 15:48:44;;;;;;;6.27;1.20;;;21.10;38.50;;;;;;8382593;28;20520;-60
2021/01/31 15:52:45;;;;;;;2.33;1.10;;;21.20;38.40;;;;;;8392823;27;20020;-59
2021/01/31 15:56:46;;;;;;;42.80;10.25;;;21.30;38.50;;;;;;8386152;28;20313;-58
2021/01/31 16:00:46;;;;;;;58.13;13.07;;;21.30;38.40;;;;;;8386181;28;20151;-59
2021/01/31 16:04:47;;;;;;;50.80;13.37;;;21.40;38.30;;;;;;8395336;27;20039;-58
2021/01/31 16:08:50;;;;;;;64.17;13.93;;;21.40;38.30;;;;;;8392564;28;20028;-59
2021/01/31 16:13:22;;;;;;;52.88;12.50;;;21.50;38.30;;;;;;8389248;28;20036;-61
2021/01/31 16:17:23;;;;;;;;;;;21.50;38.60;;;;;;8342901;28;20049;-58
2021/01/31 16:21:26;;;;;;;59.30;11.70;;;21.50;38.30;;;;;;8391378;27;19914;-59
2021/01/31 16:25:28;;;;;;;45.95;11.02;;;21.50;38.30;;;;;;8391976;28;20127;-61
2021/01/31 16:29:29;;;;;;;43.67;10.65;;;21.50;38.30;;;;;;8390539;28;20043;-56
2021/01/31 16:33:29;;;;;;;53.07;10.77;;;21.60;38.20;;;;;;8388838;28;20515;-57
2021/01/31 16:37:30;;;;;;;41.77;10.93;;;21.60;38.40;;;;;;8399599;27;20053;-54
2021/01/31 16:41:31;;;;;;;89.70;23.17;;;21.70;38.30;;;;;;8396933;28;20024;-55
2021/01/31 16:45:39;;;;;;;76.93;19.23;;;21.70;38.40;;;;;;8388491;28;20063;-55
2021/01/31 16:49:39;;;;;;;55.38;14.98;;;21.80;38.30;;;;;;8393442;28;20560;-57
2021/01/31 16:53:40;;;;;;;64.07;14.47;;;21.80;38.20;;;;;;8389877;28;20036;-57
2021/01/31 16:57:42;;;;;;;59.07;15.07;;;21.90;38.30;;;;;;8389248;28;20505;-48
2021/01/31 17:01:42;;;;;;;14.52;4.72;;;21.90;38.10;;;;;;8399123;28;20042;-51
2021/01/31 17:05:46;;;;;;;4.87;3.07;;;21.60;34.60;;;;;;8388617;28;20081;-50
2021/01/31 17:09:47;;;;;;;14.98;5.07;;;20.90;34.90;;;;;;8394732;28;20036;-56
2021/01/31 17:13:48;;;;;;;13.53;4.53;;;20.40;37.50;;;;;;8381699;28;20114;-57
2021/01/31 17:17:49;;;;;;;10.40;3.97;;;20.50;37.90;;;;;;8372866;28;20044;-52
2021/01/31 17:21:49;;;;;;;11.27;4.25;;;20.70;37.80;;;;;;8390749;28;20422;-57
2021/01/31 17:25:50;;;;;;;10.67;3.53;;;20.90;37.60;;;;;;8386022;28;20064;-57
2021/01/31 17:29:50;;;;;;;8.13;2.93;;;21.10;37.40;;;;;;8398427;28;20503;-60
2021/01/31 17:33:51;;;;;;;7.60;3.27;;;21.20;37.30;;;;;;8400031;28;20029;-60
2021/01/31 17:37:53;;;;;;;10.27;3.37;;;21.30;37.20;;;;;;8375802;27;20638;-58
2021/01/31 17:41:54;;;;;;;12.63;3.33;;;21.40;37.20;;;;;;8390262;27;20044;-58
2021/01/31 17:45:54;;;;;;;8.52;3.00;;;21.50;37.10;;;;;;8390054;27;20048;-58
2021/01/31 17:49:55;;;;;;;9.50;3.10;;;21.60;37.20;;;;;;8388913;28;20047;-59
2021/01/31 17:53:55;;;;;;;6.83;2.87;;;21.60;37.10;;;;;;8391473;28;20060;-58
2021/01/31 17:57:56;;;;;;;6.47;2.77;;;21.60;37.00;;;;;;8393460;28;20057;-58
2021/01/31 18:01:57;;;;;;;8.00;2.80;;;21.70;37.10;;;;;;8384750;28;20028;-57
2021/01/31 18:05:57;;;;;;;6.73;2.67;;;21.70;37.60;;;;;;8387933;28;20081;-57
2021/01/31 18:09:58;;;;;;;10.20;2.63;;;21.80;37.10;;;;;;8396493;27;20174;-59
2021/01/31 18:13:58;;;;;;;6.97;2.43;;;21.70;37.00;;;;;;8389135;28;20469;-59
2021/01/31 18:17:59;;;;;;;5.80;2.60;;;21.80;37.10;;;;;;8385892;28;20048;-58
2021/01/31 18:22:00;;;;;;;4.53;2.33;;;21.80;37.10;;;;;;8401710;27;20036;-56
2021/01/31 18:26:01;;;;;;;6.85;2.38;;;21.80;37.20;;;;;;8402880;27;20036;-57
2021/01/31 18:30:02;;;;;;;5.60;2.50;;;21.80;37.30;;;;;;8394103;28;20063;-54
2021/01/31 18:34:03;;;;;;;;;;;21.90;37.60;;;;;;8387899;28;20128;-48
2021/01/31 18:38:04;;;;;;;13.03;5.77;;;21.70;36.00;;;;;;8391229;27;20045;-57
2021/01/31 18:42:05;;;;;;;14.85;4.35;;;21.10;34.60;;;;;;8391329;28;20420;-56
2021/01/31 18:46:06;;;;;;;22.73;5.17;;;20.90;37.60;;;;;;8394084;28;20094;-56
2021/01/31 18:50:08;;;;;;;20.63;4.47;;;20.90;37.50;;;;;;8389086;28;20279;-55
2021/01/31 18:54:08;;;;;;;11.15;3.88;;;21.10;37.50;;;;;;8389502;28;20039;-57
2021/01/31 18:58:09;;;;;;;14.87;4.23;;;21.20;37.70;;;;;;8389714;28;20045;-56
2021/01/31 19:02:09;;;;;;;13.40;4.30;;;21.30;37.00;;;;;;8395926;28;20032;-57
2021/01/31 19:06:10;;;;;;;17.63;4.00;;;21.30;36.80;;;;;;8392250;28;20064;-57
2021/01/31 19:10:11;;;;;;;20.80;4.37;;;21.30;36.60;;;;;;8389755;28;20037;-57
2021/01/31 19:14:12;;;;;;;15.43;4.18;;;21.40;36.60;;;;;;8391787;27;20398;-56
2021/01/31 19:18:14;;;;;;;16.33;3.77;;;21.40;36.50;;;;;;8379002;28;20046;-57
2021/01/31 19:22:15;;;;;;;8.25;3.58;;;21.40;36.40;;;;;;8394180;28;20075;-58
2021/01/31 19:26:15;;;;;;;10.10;4.03;;;21.40;36.30;;;;;;8391132;27;20032;-57
2021/01/31 19:30:25;;;;;;;9.60;3.37;;;21.40;36.30;;;;;;8391297;28;20078;-58
2021/01/31 19:34:27;;;;;;;7.57;3.28;;;21.40;36.30;;;;;;8388919;27;20040;-57
2021/01/31 19:38:27;;;;;;;8.05;3.40;;;21.30;36.30;;;;;;8396861;28;20037;-57
2021/01/31 19:42:28;;;;;;;9.00;3.40;;;21.30;36.20;;;;;;8397864;28;20047;-57
2021/01/31 19:46:29;;;;;;;7.83;3.10;;;21.30;36.20;;;;;;8396479;28;20123;-57
2021/01/31 19:50:30;;;;;;;7.60;3.05;;;21.30;36.20;;;;;;8397382;28;20039;-57
2021/01/31 19:54:30;;;;;;;6.20;3.28;;;21.30;36.20;;;;;;8397911;28;20083;-57
2021/01/31 19:58:31;;;;;;;7.37;2.97;;;21.30;36.20;;;;;;8399787;28;20078;-56
2021/01/31 20:02:31;;;;;;;6.07;2.93;;;21.30;36.10;;;;;;8421328;28;20036;-56
2021/01/31 20:06:32;;;;;;;5.83;2.30;;;21.30;36.10;;;;;;8415051;28;20037;-57
2021/01/31 20:10:37;;;;;;;6.25;3.08;;;21.30;36.10;;;;;;8395036;28;20033;-56
2021/01/31 20:14:37;;;;;;;4.32;2.35;;;21.30;36.10;;;;;;8401213;28;20521;-57
2021/01/31 20:18:38;;;;;;;7.57;3.67;;;21.30;36.00;;;;;;8396417;28;20074;-57
2021/01/31 20:22:38;;;;;;;5.80;3.00;;;21.30;36.00;;;;;;8394855;27;20423;-57
2021/01/31 20:26:39;;;;;;;4.83;2.83;;;21.30;36.00;;;;;;8397520;28;20135;-57
2021/01/31 20:30:40;;;;;;;5.97;2.63;;;21.30;36.00;;;;;;8400836;27;20025;-57
2021/01/31 20:34:40;;;;;;;9.30;2.80;;;21.30;36.00;;;;;;8394770;28;20033;-56
2021/01/31 20:38:41;;;;;;;4.57;2.80;;;21.20;35.90;;;;;;8396223;28;20344;-56
2021/01/31 20:42:42;;;;;;;3.58;2.30;;;21.20;35.90;;;;;;8394363;28;20041;-58
2021/01/31 20:46:44;;;;;;;4.97;2.50;;;21.20;35.90;;;;;;8394491;28;20028;-57
2021/01/31 20:50:48;;;;;;;6.10;2.35;;;21.20;36.00;;;;;;8398833;28;20097;-58
2021/01/31 20:54:48;;;;;;;8.40;2.58;;;21.20;35.90;;;;;;8395828;27;20462;-58
2021/01/31 20:58:49;;;;;;;6.37;2.43;;;21.20;35.90;;;;;;8393829;27;20041;-58
2021/01/31 21:02:49;;;;;;;5.37;2.40;;;21.20;35.90;;;;;;8395580;28;20041;-57
2021/01/31 21:06:50;;;;;;;6.77;2.20;;;21.20;35.90;;;;;;8399844;28;20052;-57
2021/01/31 21:10:51;;;;;;;3.80;2.20;;;21.20;35.90;;;;;;8422328;27;20396;-56